sensor_id;sensor_type;location;lat;lon;timestamp;temperature;humidity
8715;DHT22;4394;51.208;8.904;2023-02-15T00:02:17;3.50;99.90
8715;DHT22;4394;51.208;8.904;2023-02-15T00:05:08;3.50;99.90
8715;DHT22;4394;51.208;8.904;2023-02-15T00:07:58;3.50;99.90
8715;DHT22;4394;51.208;8.904;2023-02-15T00:10:49;3.60;99.90
8715;DHT22;4394;51.208;8.904;2023-02-15T00:13:37;3.50;99.90
8715;DHT22;4394;51.208;8.904;2023-02-15T00:16:28;3.60;99.90
8715;DHT22;4394;51.208;8.904;2023-02-15T00:19:18;3.50;99.90
8715;DHT22;4394;51.208;8.904;2023-02-15T00:22:07;3.40;99.90
8715;DHT22;4394;51.208;8.904;2023-02-15T00:24:55;3.40;99.90
8715;DHT22;4394;51.208;8.904;2023-02-15T00:27:43;3.40;99.90
8715;DHT22;4394;51.208;8.904;2023-02-15T00:30:34;3.40;99.90
8715;DHT22;4394;51.208;8.904;2023-02-15T00:33:24;3.40;99.90
8715;DHT22;4394;51.208;8.904;2023-02-15T00:36:12;3.50;99.90
8715;DHT22;4394;51.208;8.904;2023-02-15T00:39:02;3.50;99.90
8715;DHT22;4394;51.208;8.904;2023-02-15T00:41:51;3.50;99.90
8715;DHT22;4394;51.208;8.904;2023-02-15T00:44:41;3.50;99.90
8715;DHT22;4394;51.208;8.904;2023-02-15T00:47:29;3.50;99.90
8715;DHT22;4394;51.208;8.904;2023-02-15T00:50:17;3.50;99.90
8715;DHT22;4394;51.208;8.904;2023-02-15T00:53:09;3.50;99.90
8715;DHT22;4394;51.208;8.904;2023-02-15T00:56:01;3.50;99.90
8715;DHT22;4394;51.208;8.904;2023-02-15T00:58:50;3.50;99.90
8715;DHT22;4394;51.208;8.904;2023-02-15T01:01:38;3.40;99.90
8715;DHT22;4394;51.208;8.904;2023-02-15T01:04:26;3.30;99.90
8715;DHT22;4394;51.208;8.904;2023-02-15T01:07:14;3.30;99.90
8715;DHT22;4394;51.208;8.904;2023-02-15T01:10:02;3.30;99.90
8715;DHT22;4394;51.208;8.904;2023-02-15T01:12:52;3.30;99.90
8715;DHT22;4394;51.208;8.904;2023-02-15T01:15:43;3.30;99.90
8715;DHT22;4394;51.208;8.904;2023-02-15T01:18:31;3.30;99.90
8715;DHT22;4394;51.208;8.904;2023-02-15T01:21:22;3.30;99.90
8715;DHT22;4394;51.208;8.904;2023-02-15T01:24:12;3.30;99.90
8715;DHT22;4394;51.208;8.904;2023-02-15T01:27:00;3.20;99.90
8715;DHT22;4394;51.208;8.904;2023-02-15T01:29:49;3.20;99.90
8715;DHT22;4394;51.208;8.904;2023-02-15T01:32:37;3.20;99.90
8715;DHT22;4394;51.208;8.904;2023-02-15T01:35:28;3.40;99.90
8715;DHT22;4394;51.208;8.904;2023-02-15T01:38:16;3.30;99.90
8715;DHT22;4394;51.208;8.904;2023-02-15T01:41:04;3.30;99.90
8715;DHT22;4394;51.208;8.904;2023-02-15T01:44:49;3.40;99.90
8715;DHT22;4394;51.208;8.904;2023-02-15T01:47:42;3.40;99.90
8715;DHT22;4394;51.208;8.904;2023-02-15T01:50:33;3.40;99.90
8715;DHT22;4394;51.208;8.904;2023-02-15T01:53:28;3.30;99.90
8715;DHT22;4394;51.208;8.904;2023-02-15T01:56:19;3.30;99.90
8715;DHT22;4394;51.208;8.904;2023-02-15T01:59:11;3.20;99.90
8715;DHT22;4394;51.208;8.904;2023-02-15T02:02:02;3.30;99.90
8715;DHT22;4394;51.208;8.904;2023-02-15T02:04:53;3.20;99.90
8715;DHT22;4394;51.208;8.904;2023-02-15T02:07:44;3.20;99.90
8715;DHT22;4394;51.208;8.904;2023-02-15T02:10:35;3.20;99.90
8715;DHT22;4394;51.208;8.904;2023-02-15T02:13:24;3.20;99.90
8715;DHT22;4394;51.208;8.904;2023-02-15T02:16:16;3.30;99.90
8715;DHT22;4394;51.208;8.904;2023-02-15T02:19:25;3.20;99.90
8715;DHT22;4394;51.208;8.904;2023-02-15T02:22:49;3.20;99.90
8715;DHT22;4394;51.208;8.904;2023-02-15T02:26:10;3.20;99.90
8715;DHT22;4394;51.208;8.904;2023-02-15T02:29:38;3.20;99.90
8715;DHT22;4394;51.208;8.904;2023-02-15T02:36:17;3.10;99.90
8715;DHT22;4394;51.208;8.904;2023-02-15T02:39:20;3.10;99.90
8715;DHT22;4394;51.208;8.904;2023-02-15T02:42:13;3.10;99.90
8715;DHT22;4394;51.208;8.904;2023-02-15T02:45:07;3.20;99.90
8715;DHT22;4394;51.208;8.904;2023-02-15T02:47:59;3.20;99.90
8715;DHT22;4394;51.208;8.904;2023-02-15T02:50:48;3.20;99.90
8715;DHT22;4394;51.208;8.904;2023-02-15T02:53:38;3.30;99.90
8715;DHT22;4394;51.208;8.904;2023-02-15T02:56:30;3.30;99.90
8715;DHT22;4394;51.208;8.904;2023-02-15T02:59:22;3.10;99.90
8715;DHT22;4394;51.208;8.904;2023-02-15T03:02:16;3.00;99.90
8715;DHT22;4394;51.208;8.904;2023-02-15T03:05:09;2.90;99.90
8715;DHT22;4394;51.208;8.904;2023-02-15T03:07:59;2.90;99.90
8715;DHT22;4394;51.208;8.904;2023-02-15T03:10:56;3.00;99.90
8715;DHT22;4394;51.208;8.904;2023-02-15T03:13:47;2.90;99.90
8715;DHT22;4394;51.208;8.904;2023-02-15T03:16:37;2.90;99.90
8715;DHT22;4394;51.208;8.904;2023-02-15T03:19:28;2.90;99.90
8715;DHT22;4394;51.208;8.904;2023-02-15T03:22:23;2.90;99.90
8715;DHT22;4394;51.208;8.904;2023-02-15T03:25:16;3.00;99.90
8715;DHT22;4394;51.208;8.904;2023-02-15T03:28:08;2.90;99.90
8715;DHT22;4394;51.208;8.904;2023-02-15T03:31:00;3.00;99.90
8715;DHT22;4394;51.208;8.904;2023-02-15T03:33:54;3.00;99.90
8715;DHT22;4394;51.208;8.904;2023-02-15T03:36:46;3.00;99.90
8715;DHT22;4394;51.208;8.904;2023-02-15T03:39:38;3.00;99.90
8715;DHT22;4394;51.208;8.904;2023-02-15T03:42:29;3.00;99.90
8715;DHT22;4394;51.208;8.904;2023-02-15T03:45:24;3.10;99.90
8715;DHT22;4394;51.208;8.904;2023-02-15T03:48:13;3.00;99.90
8715;DHT22;4394;51.208;8.904;2023-02-15T03:51:05;2.90;99.90
8715;DHT22;4394;51.208;8.904;2023-02-15T03:54:14;3.10;99.90
8715;DHT22;4394;51.208;8.904;2023-02-15T03:57:26;2.90;99.90
8715;DHT22;4394;51.208;8.904;2023-02-15T04:00:36;2.90;99.90
8715;DHT22;4394;51.208;8.904;2023-02-15T04:03:45;3.00;99.90
8715;DHT22;4394;51.208;8.904;2023-02-15T04:06:36;3.00;99.90
8715;DHT22;4394;51.208;8.904;2023-02-15T04:09:24;3.00;99.90
8715;DHT22;4394;51.208;8.904;2023-02-15T04:12:30;3.10;99.90
8715;DHT22;4394;51.208;8.904;2023-02-15T04:15:18;3.20;99.90
8715;DHT22;4394;51.208;8.904;2023-02-15T04:18:21;3.00;99.90
8715;DHT22;4394;51.208;8.904;2023-02-15T04:21:29;3.00;99.90
8715;DHT22;4394;51.208;8.904;2023-02-15T04:24:35;3.10;99.90
8715;DHT22;4394;51.208;8.904;2023-02-15T04:27:42;3.00;99.90
8715;DHT22;4394;51.208;8.904;2023-02-15T04:30:30;3.00;99.90
8715;DHT22;4394;51.208;8.904;2023-02-15T04:33:17;2.90;99.90
8715;DHT22;4394;51.208;8.904;2023-02-15T04:36:07;2.90;99.90
8715;DHT22;4394;51.208;8.904;2023-02-15T04:38:54;2.90;99.90
8715;DHT22;4394;51.208;8.904;2023-02-15T04:41:43;2.80;99.90
8715;DHT22;4394;51.208;8.904;2023-02-15T04:44:31;2.80;99.90
8715;DHT22;4394;51.208;8.904;2023-02-15T04:47:19;2.90;99.90
8715;DHT22;4394;51.208;8.904;2023-02-15T04:50:07;2.90;99.90
8715;DHT22;4394;51.208;8.904;2023-02-15T04:52:57;2.90;99.90
8715;DHT22;4394;51.208;8.904;2023-02-15T04:55:44;2.90;99.90
8715;DHT22;4394;51.208;8.904;2023-02-15T04:58:32;2.90;99.90
8715;DHT22;4394;51.208;8.904;2023-02-15T05:01:21;2.80;99.90
8715;DHT22;4394;51.208;8.904;2023-02-15T05:04:09;2.80;99.90
8715;DHT22;4394;51.208;8.904;2023-02-15T05:06:57;2.80;99.90
8715;DHT22;4394;51.208;8.904;2023-02-15T05:09:47;2.80;99.90
8715;DHT22;4394;51.208;8.904;2023-02-15T05:12:35;2.80;99.90
8715;DHT22;4394;51.208;8.904;2023-02-15T05:15:23;2.80;99.90
8715;DHT22;4394;51.208;8.904;2023-02-15T05:18:11;2.80;99.90
8715;DHT22;4394;51.208;8.904;2023-02-15T05:20:59;2.80;99.90
8715;DHT22;4394;51.208;8.904;2023-02-15T05:23:46;2.90;99.90
8715;DHT22;4394;51.208;8.904;2023-02-15T05:26:36;2.80;99.90
8715;DHT22;4394;51.208;8.904;2023-02-15T05:29:41;2.80;99.90
8715;DHT22;4394;51.208;8.904;2023-02-15T05:32:29;2.70;99.90
8715;DHT22;4394;51.208;8.904;2023-02-15T05:35:18;2.80;99.90
8715;DHT22;4394;51.208;8.904;2023-02-15T05:38:06;2.70;99.90
8715;DHT22;4394;51.208;8.904;2023-02-15T05:40:54;2.70;99.90
8715;DHT22;4394;51.208;8.904;2023-02-15T05:43:43;2.70;99.90
8715;DHT22;4394;51.208;8.904;2023-02-15T05:46:31;2.80;99.90
8715;DHT22;4394;51.208;8.904;2023-02-15T05:49:19;2.70;99.90
8715;DHT22;4394;51.208;8.904;2023-02-15T05:52:07;2.70;99.90
8715;DHT22;4394;51.208;8.904;2023-02-15T05:54:55;2.70;99.90
8715;DHT22;4394;51.208;8.904;2023-02-15T05:57:44;2.70;99.90
8715;DHT22;4394;51.208;8.904;2023-02-15T06:00:33;2.70;99.90
8715;DHT22;4394;51.208;8.904;2023-02-15T06:03:24;2.70;99.90
8715;DHT22;4394;51.208;8.904;2023-02-15T06:06:15;2.80;99.90
8715;DHT22;4394;51.208;8.904;2023-02-15T06:09:03;2.70;99.90
8715;DHT22;4394;51.208;8.904;2023-02-15T06:11:51;2.70;99.90
8715;DHT22;4394;51.208;8.904;2023-02-15T06:14:39;2.60;99.90
8715;DHT22;4394;51.208;8.904;2023-02-15T06:17:28;2.60;99.90
8715;DHT22;4394;51.208;8.904;2023-02-15T06:20:16;2.60;99.90
8715;DHT22;4394;51.208;8.904;2023-02-15T06:23:04;2.60;99.90
8715;DHT22;4394;51.208;8.904;2023-02-15T06:25:52;2.50;99.90
8715;DHT22;4394;51.208;8.904;2023-02-15T06:28:40;2.50;99.90
8715;DHT22;4394;51.208;8.904;2023-02-15T06:31:28;2.50;99.90
8715;DHT22;4394;51.208;8.904;2023-02-15T06:34:18;2.50;99.90
8715;DHT22;4394;51.208;8.904;2023-02-15T06:37:05;2.50;99.90
8715;DHT22;4394;51.208;8.904;2023-02-15T06:39:54;2.50;99.90
8715;DHT22;4394;51.208;8.904;2023-02-15T06:42:42;2.50;99.90
8715;DHT22;4394;51.208;8.904;2023-02-15T06:45:30;2.40;99.90
8715;DHT22;4394;51.208;8.904;2023-02-15T06:48:18;2.50;99.90
8715;DHT22;4394;51.208;8.904;2023-02-15T06:51:07;2.50;99.90
8715;DHT22;4394;51.208;8.904;2023-02-15T06:53:55;2.50;99.90
8715;DHT22;4394;51.208;8.904;2023-02-15T06:56:43;2.50;99.90
8715;DHT22;4394;51.208;8.904;2023-02-15T06:59:31;2.60;99.90
8715;DHT22;4394;51.208;8.904;2023-02-15T07:02:19;2.50;99.90
8715;DHT22;4394;51.208;8.904;2023-02-15T07:05:07;2.50;99.90
8715;DHT22;4394;51.208;8.904;2023-02-15T07:07:56;2.70;99.90
8715;DHT22;4394;51.208;8.904;2023-02-15T07:10:44;2.60;99.90
8715;DHT22;4394;51.208;8.904;2023-02-15T07:13:32;2.50;99.90
8715;DHT22;4394;51.208;8.904;2023-02-15T07:16:19;2.50;99.90
8715;DHT22;4394;51.208;8.904;2023-02-15T07:19:07;2.50;99.90
8715;DHT22;4394;51.208;8.904;2023-02-15T07:21:55;2.50;99.90
8715;DHT22;4394;51.208;8.904;2023-02-15T07:24:44;2.40;99.90
8715;DHT22;4394;51.208;8.904;2023-02-15T07:27:32;2.60;99.90
8715;DHT22;4394;51.208;8.904;2023-02-15T07:30:20;2.40;99.90
8715;DHT22;4394;51.208;8.904;2023-02-15T07:33:08;2.50;99.90
8715;DHT22;4394;51.208;8.904;2023-02-15T07:36:13;2.50;99.90
8715;DHT22;4394;51.208;8.904;2023-02-15T07:39:01;2.40;99.90
8715;DHT22;4394;51.208;8.904;2023-02-15T07:41:50;2.50;99.90
8715;DHT22;4394;51.208;8.904;2023-02-15T07:44:38;2.40;99.90
8715;DHT22;4394;51.208;8.904;2023-02-15T07:47:27;2.40;99.90
8715;DHT22;4394;51.208;8.904;2023-02-15T07:50:15;2.40;99.90
8715;DHT22;4394;51.208;8.904;2023-02-15T07:53:04;2.40;99.90
8715;DHT22;4394;51.208;8.904;2023-02-15T07:55:52;2.40;99.90
8715;DHT22;4394;51.208;8.904;2023-02-15T07:58:41;2.40;99.90
8715;DHT22;4394;51.208;8.904;2023-02-15T08:01:38;2.60;99.90
8715;DHT22;4394;51.208;8.904;2023-02-15T08:04:26;2.50;99.90
8715;DHT22;4394;51.208;8.904;2023-02-15T08:07:14;2.50;99.90
8715;DHT22;4394;51.208;8.904;2023-02-15T08:10:02;2.50;99.90
8715;DHT22;4394;51.208;8.904;2023-02-15T08:12:50;2.50;99.90
8715;DHT22;4394;51.208;8.904;2023-02-15T08:15:39;2.50;99.90
8715;DHT22;4394;51.208;8.904;2023-02-15T08:18:27;2.50;99.90
8715;DHT22;4394;51.208;8.904;2023-02-15T08:21:15;2.60;99.90
8715;DHT22;4394;51.208;8.904;2023-02-15T08:24:04;2.50;99.90
8715;DHT22;4394;51.208;8.904;2023-02-15T08:26:52;2.60;99.90
8715;DHT22;4394;51.208;8.904;2023-02-15T08:29:40;2.60;99.90
8715;DHT22;4394;51.208;8.904;2023-02-15T08:32:30;2.60;99.90
8715;DHT22;4394;51.208;8.904;2023-02-15T08:35:18;2.60;99.90
8715;DHT22;4394;51.208;8.904;2023-02-15T08:38:05;2.60;99.90
8715;DHT22;4394;51.208;8.904;2023-02-15T08:40:53;2.60;99.90
8715;DHT22;4394;51.208;8.904;2023-02-15T08:43:42;2.60;99.90
8715;DHT22;4394;51.208;8.904;2023-02-15T08:46:32;2.70;99.90
8715;DHT22;4394;51.208;8.904;2023-02-15T08:49:21;2.70;99.90
8715;DHT22;4394;51.208;8.904;2023-02-15T08:52:10;2.70;99.90
8715;DHT22;4394;51.208;8.904;2023-02-15T08:54:58;2.70;99.90
8715;DHT22;4394;51.208;8.904;2023-02-15T08:57:46;2.70;99.90
8715;DHT22;4394;51.208;8.904;2023-02-15T09:00:34;2.80;99.90
8715;DHT22;4394;51.208;8.904;2023-02-15T09:03:22;2.80;99.90
8715;DHT22;4394;51.208;8.904;2023-02-15T09:06:12;2.80;99.90
8715;DHT22;4394;51.208;8.904;2023-02-15T09:09:00;2.80;99.90
8715;DHT22;4394;51.208;8.904;2023-02-15T09:11:51;2.80;99.90
8715;DHT22;4394;51.208;8.904;2023-02-15T09:14:44;2.90;99.90
8715;DHT22;4394;51.208;8.904;2023-02-15T09:17:32;2.80;99.90
8715;DHT22;4394;51.208;8.904;2023-02-15T09:20:20;2.80;99.90
8715;DHT22;4394;51.208;8.904;2023-02-15T09:23:10;2.90;99.90
8715;DHT22;4394;51.208;8.904;2023-02-15T09:26:14;2.90;99.90
8715;DHT22;4394;51.208;8.904;2023-02-15T09:29:03;2.90;99.90
8715;DHT22;4394;51.208;8.904;2023-02-15T09:31:51;2.90;99.90
8715;DHT22;4394;51.208;8.904;2023-02-15T09:34:40;2.90;99.90
8715;DHT22;4394;51.208;8.904;2023-02-15T09:37:29;3.00;99.90
8715;DHT22;4394;51.208;8.904;2023-02-15T09:40:19;3.00;99.90
8715;DHT22;4394;51.208;8.904;2023-02-15T09:43:22;3.10;99.90
8715;DHT22;4394;51.208;8.904;2023-02-15T09:46:26;3.10;99.90
8715;DHT22;4394;51.208;8.904;2023-02-15T09:49:23;3.10;99.90
8715;DHT22;4394;51.208;8.904;2023-02-15T09:52:32;3.10;99.90
8715;DHT22;4394;51.208;8.904;2023-02-15T09:55:32;3.20;99.90
8715;DHT22;4394;51.208;8.904;2023-02-15T09:58:32;3.20;99.90
8715;DHT22;4394;51.208;8.904;2023-02-15T10:01:28;3.20;99.90
8715;DHT22;4394;51.208;8.904;2023-02-15T10:04:39;3.30;99.90
8715;DHT22;4394;51.208;8.904;2023-02-15T10:07:45;3.20;99.90
8715;DHT22;4394;51.208;8.904;2023-02-15T10:10:41;3.30;99.90
8715;DHT22;4394;51.208;8.904;2023-02-15T10:13:39;3.30;99.90
8715;DHT22;4394;51.208;8.904;2023-02-15T10:16:37;3.30;99.90
8715;DHT22;4394;51.208;8.904;2023-02-15T10:19:34;3.40;99.90
8715;DHT22;4394;51.208;8.904;2023-02-15T10:22:32;3.30;99.90
8715;DHT22;4394;51.208;8.904;2023-02-15T10:25:32;3.30;99.90
8715;DHT22;4394;51.208;8.904;2023-02-15T10:28:31;3.40;99.90
8715;DHT22;4394;51.208;8.904;2023-02-15T10:31:28;3.40;99.90
8715;DHT22;4394;51.208;8.904;2023-02-15T10:34:28;3.40;99.90
8715;DHT22;4394;51.208;8.904;2023-02-15T10:37:46;3.50;99.90
8715;DHT22;4394;51.208;8.904;2023-02-15T10:40:41;3.50;99.90
8715;DHT22;4394;51.208;8.904;2023-02-15T10:43:45;3.50;99.90
8715;DHT22;4394;51.208;8.904;2023-02-15T10:46:52;3.60;99.90
8715;DHT22;4394;51.208;8.904;2023-02-15T10:49:55;3.60;99.90
8715;DHT22;4394;51.208;8.904;2023-02-15T10:52:55;3.60;99.90
8715;DHT22;4394;51.208;8.904;2023-02-15T10:55:54;3.50;99.90
8715;DHT22;4394;51.208;8.904;2023-02-15T10:58:55;3.50;99.90
8715;DHT22;4394;51.208;8.904;2023-02-15T11:01:50;3.60;99.90
8715;DHT22;4394;51.208;8.904;2023-02-15T11:04:51;3.60;99.90
8715;DHT22;4394;51.208;8.904;2023-02-15T11:07:43;3.60;99.90
8715;DHT22;4394;51.208;8.904;2023-02-15T11:10:36;3.60;99.90
8715;DHT22;4394;51.208;8.904;2023-02-15T11:13:29;3.70;99.90
8715;DHT22;4394;51.208;8.904;2023-02-15T11:16:25;3.70;99.90
8715;DHT22;4394;51.208;8.904;2023-02-15T11:19:18;3.80;99.90
8715;DHT22;4394;51.208;8.904;2023-02-15T11:22:10;3.80;99.90
8715;DHT22;4394;51.208;8.904;2023-02-15T11:25:00;3.90;99.90
8715;DHT22;4394;51.208;8.904;2023-02-15T11:27:49;3.80;99.90
8715;DHT22;4394;51.208;8.904;2023-02-15T11:30:42;3.80;99.90
8715;DHT22;4394;51.208;8.904;2023-02-15T11:33:35;3.80;99.90
8715;DHT22;4394;51.208;8.904;2023-02-15T11:36:27;3.80;99.90
8715;DHT22;4394;51.208;8.904;2023-02-15T11:39:18;3.90;99.90
8715;DHT22;4394;51.208;8.904;2023-02-15T11:42:13;3.90;99.90
8715;DHT22;4394;51.208;8.904;2023-02-15T11:45:06;4.00;99.90
8715;DHT22;4394;51.208;8.904;2023-02-15T11:48:09;4.00;99.90
8715;DHT22;4394;51.208;8.904;2023-02-15T11:50:59;4.20;99.90
8715;DHT22;4394;51.208;8.904;2023-02-15T11:53:51;4.10;99.90
8715;DHT22;4394;51.208;8.904;2023-02-15T11:56:42;4.10;99.90
8715;DHT22;4394;51.208;8.904;2023-02-15T11:59:32;4.20;99.90
8715;DHT22;4394;51.208;8.904;2023-02-15T12:02:23;4.20;99.90
8715;DHT22;4394;51.208;8.904;2023-02-15T12:05:17;4.20;99.90
8715;DHT22;4394;51.208;8.904;2023-02-15T12:08:15;4.20;99.90
8715;DHT22;4394;51.208;8.904;2023-02-15T12:11:07;4.20;99.90
8715;DHT22;4394;51.208;8.904;2023-02-15T12:14:00;4.20;99.90
8715;DHT22;4394;51.208;8.904;2023-02-15T12:16:50;4.20;99.90
8715;DHT22;4394;51.208;8.904;2023-02-15T12:19:40;4.20;99.90
8715;DHT22;4394;51.208;8.904;2023-02-15T12:22:33;4.30;99.90
8715;DHT22;4394;51.208;8.904;2023-02-15T12:25:27;4.40;99.90
8715;DHT22;4394;51.208;8.904;2023-02-15T12:28:24;4.40;99.90
8715;DHT22;4394;51.208;8.904;2023-02-15T12:31:20;4.40;99.90
8715;DHT22;4394;51.208;8.904;2023-02-15T12:34:12;4.50;99.90
8715;DHT22;4394;51.208;8.904;2023-02-15T12:37:07;4.50;99.90
8715;DHT22;4394;51.208;8.904;2023-02-15T12:39:57;4.50;99.90
8715;DHT22;4394;51.208;8.904;2023-02-15T12:42:48;4.60;99.90
8715;DHT22;4394;51.208;8.904;2023-02-15T12:45:37;4.60;99.90
8715;DHT22;4394;51.208;8.904;2023-02-15T12:48:28;4.80;99.90
8715;DHT22;4394;51.208;8.904;2023-02-15T12:51:15;4.70;99.90
8715;DHT22;4394;51.208;8.904;2023-02-15T12:54:27;4.70;99.90
8715;DHT22;4394;51.208;8.904;2023-02-15T12:57:28;4.70;99.90
8715;DHT22;4394;51.208;8.904;2023-02-15T13:00:28;4.60;99.90
8715;DHT22;4394;51.208;8.904;2023-02-15T13:03:22;4.70;99.90
8715;DHT22;4394;51.208;8.904;2023-02-15T13:06:11;4.70;99.90
8715;DHT22;4394;51.208;8.904;2023-02-15T13:09:06;4.70;99.90
8715;DHT22;4394;51.208;8.904;2023-02-15T13:12:18;4.70;99.90
8715;DHT22;4394;51.208;8.904;2023-02-15T13:15:24;4.70;99.90
8715;DHT22;4394;51.208;8.904;2023-02-15T13:18:16;4.60;99.90
8715;DHT22;4394;51.208;8.904;2023-02-15T13:21:10;4.60;99.90
8715;DHT22;4394;51.208;8.904;2023-02-15T13:24:02;4.60;99.90
8715;DHT22;4394;51.208;8.904;2023-02-15T13:26:52;4.60;99.90
8715;DHT22;4394;51.208;8.904;2023-02-15T13:30:13;4.50;99.90
8715;DHT22;4394;51.208;8.904;2023-02-15T13:33:08;4.50;99.90
8715;DHT22;4394;51.208;8.904;2023-02-15T13:36:05;4.60;99.90
8715;DHT22;4394;51.208;8.904;2023-02-15T13:39:03;4.70;99.90
8715;DHT22;4394;51.208;8.904;2023-02-15T13:42:01;4.60;99.90
8715;DHT22;4394;51.208;8.904;2023-02-15T13:45:08;4.60;99.90
8715;DHT22;4394;51.208;8.904;2023-02-15T13:48:03;4.60;99.90
8715;DHT22;4394;51.208;8.904;2023-02-15T13:51:08;4.60;99.90
8715;DHT22;4394;51.208;8.904;2023-02-15T13:54:07;4.60;99.90
8715;DHT22;4394;51.208;8.904;2023-02-15T13:57:14;4.60;99.90
8715;DHT22;4394;51.208;8.904;2023-02-15T14:00:17;4.60;99.90
8715;DHT22;4394;51.208;8.904;2023-02-15T14:03:30;4.70;99.90
8715;DHT22;4394;51.208;8.904;2023-02-15T14:06:41;4.70;99.90
8715;DHT22;4394;51.208;8.904;2023-02-15T14:09:40;4.70;99.90
8715;DHT22;4394;51.208;8.904;2023-02-15T14:12:46;4.80;99.90
8715;DHT22;4394;51.208;8.904;2023-02-15T14:15:42;4.80;99.90
8715;DHT22;4394;51.208;8.904;2023-02-15T14:18:37;4.80;99.90
8715;DHT22;4394;51.208;8.904;2023-02-15T14:21:31;4.80;99.90
8715;DHT22;4394;51.208;8.904;2023-02-15T14:24:27;4.90;99.90
8715;DHT22;4394;51.208;8.904;2023-02-15T14:27:26;4.90;99.90
8715;DHT22;4394;51.208;8.904;2023-02-15T14:30:20;4.90;99.90
8715;DHT22;4394;51.208;8.904;2023-02-15T14:33:29;4.80;99.90
8715;DHT22;4394;51.208;8.904;2023-02-15T14:36:23;4.80;99.90
8715;DHT22;4394;51.208;8.904;2023-02-15T14:39:21;4.70;99.90
8715;DHT22;4394;51.208;8.904;2023-02-15T14:42:45;4.70;99.90
8715;DHT22;4394;51.208;8.904;2023-02-15T14:45:47;4.70;99.90
8715;DHT22;4394;51.208;8.904;2023-02-15T14:48:39;4.60;99.90
8715;DHT22;4394;51.208;8.904;2023-02-15T14:51:54;4.50;99.90
8715;DHT22;4394;51.208;8.904;2023-02-15T14:55:09;4.50;99.90
8715;DHT22;4394;51.208;8.904;2023-02-15T14:57:58;4.50;99.90
8715;DHT22;4394;51.208;8.904;2023-02-15T15:00:49;4.40;99.90
8715;DHT22;4394;51.208;8.904;2023-02-15T15:03:44;4.40;99.90
8715;DHT22;4394;51.208;8.904;2023-02-15T15:06:41;4.40;99.90
8715;DHT22;4394;51.208;8.904;2023-02-15T15:09:34;4.40;99.90
8715;DHT22;4394;51.208;8.904;2023-02-15T15:12:40;4.40;99.90
8715;DHT22;4394;51.208;8.904;2023-02-15T15:15:39;4.40;99.90
8715;DHT22;4394;51.208;8.904;2023-02-15T15:18:46;4.40;99.90
8715;DHT22;4394;51.208;8.904;2023-02-15T15:21:54;4.30;99.90
8715;DHT22;4394;51.208;8.904;2023-02-15T15:24:51;4.30;99.90
8715;DHT22;4394;51.208;8.904;2023-02-15T15:27:44;4.40;99.90
8715;DHT22;4394;51.208;8.904;2023-02-15T15:31:04;4.30;99.90
8715;DHT22;4394;51.208;8.904;2023-02-15T15:34:17;4.40;99.90
8715;DHT22;4394;51.208;8.904;2023-02-15T15:40:42;4.30;99.90
8715;DHT22;4394;51.208;8.904;2023-02-15T15:47:29;4.20;99.90
8715;DHT22;4394;51.208;8.904;2023-02-15T15:50:21;4.40;99.90
8715;DHT22;4394;51.208;8.904;2023-02-15T15:53:18;4.20;99.90
8715;DHT22;4394;51.208;8.904;2023-02-15T15:56:12;4.20;99.90
8715;DHT22;4394;51.208;8.904;2023-02-15T15:59:04;4.10;99.90
8715;DHT22;4394;51.208;8.904;2023-02-15T16:01:53;4.00;99.90
8715;DHT22;4394;51.208;8.904;2023-02-15T16:04:44;3.90;99.90
8715;DHT22;4394;51.208;8.904;2023-02-15T16:07:32;3.90;99.90
8715;DHT22;4394;51.208;8.904;2023-02-15T16:10:22;3.90;99.90
8715;DHT22;4394;51.208;8.904;2023-02-15T16:13:14;3.90;99.90
8715;DHT22;4394;51.208;8.904;2023-02-15T16:16:02;3.80;99.90
8715;DHT22;4394;51.208;8.904;2023-02-15T16:18:51;3.90;99.90
8715;DHT22;4394;51.208;8.904;2023-02-15T16:21:41;3.80;99.90
8715;DHT22;4394;51.208;8.904;2023-02-15T16:24:44;3.80;99.90
8715;DHT22;4394;51.208;8.904;2023-02-15T16:27:39;3.80;99.90
8715;DHT22;4394;51.208;8.904;2023-02-15T16:30:30;3.80;99.90
8715;DHT22;4394;51.208;8.904;2023-02-15T16:33:20;3.80;99.90
8715;DHT22;4394;51.208;8.904;2023-02-15T16:36:11;3.80;99.90
8715;DHT22;4394;51.208;8.904;2023-02-15T16:39:10;3.70;99.90
8715;DHT22;4394;51.208;8.904;2023-02-15T16:42:04;3.70;99.90
8715;DHT22;4394;51.208;8.904;2023-02-15T16:45:01;3.70;99.90
8715;DHT22;4394;51.208;8.904;2023-02-15T16:48:00;3.70;99.90
8715;DHT22;4394;51.208;8.904;2023-02-15T16:50:54;3.70;99.90
8715;DHT22;4394;51.208;8.904;2023-02-15T16:53:46;3.70;99.90
8715;DHT22;4394;51.208;8.904;2023-02-15T16:56:35;3.70;99.90
8715;DHT22;4394;51.208;8.904;2023-02-15T16:59:34;3.70;99.90
8715;DHT22;4394;51.208;8.904;2023-02-15T17:02:27;3.60;99.90
8715;DHT22;4394;51.208;8.904;2023-02-15T17:05:42;3.60;99.90
8715;DHT22;4394;51.208;8.904;2023-02-15T17:08:40;3.50;99.90
8715;DHT22;4394;51.208;8.904;2023-02-15T17:11:39;3.50;99.90
8715;DHT22;4394;51.208;8.904;2023-02-15T17:14:29;3.50;99.90
8715;DHT22;4394;51.208;8.904;2023-02-15T17:17:17;3.50;99.90
8715;DHT22;4394;51.208;8.904;2023-02-15T17:20:14;3.50;99.90
8715;DHT22;4394;51.208;8.904;2023-02-15T17:23:03;3.50;99.90
8715;DHT22;4394;51.208;8.904;2023-02-15T17:25:51;3.40;99.90
8715;DHT22;4394;51.208;8.904;2023-02-15T17:28:45;3.40;99.90
8715;DHT22;4394;51.208;8.904;2023-02-15T17:31:34;3.30;99.90
8715;DHT22;4394;51.208;8.904;2023-02-15T17:37:50;3.30;99.90
8715;DHT22;4394;51.208;8.904;2023-02-15T17:40:47;3.10;99.90
8715;DHT22;4394;51.208;8.904;2023-02-15T17:43:35;3.10;99.90
8715;DHT22;4394;51.208;8.904;2023-02-15T17:46:24;3.20;99.90
8715;DHT22;4394;51.208;8.904;2023-02-15T17:49:23;3.20;99.90
8715;DHT22;4394;51.208;8.904;2023-02-15T17:52:13;3.30;99.90
8715;DHT22;4394;51.208;8.904;2023-02-15T17:55:07;3.30;99.90
8715;DHT22;4394;51.208;8.904;2023-02-15T17:58:18;3.30;99.90
8715;DHT22;4394;51.208;8.904;2023-02-15T18:01:16;3.30;99.90
8715;DHT22;4394;51.208;8.904;2023-02-15T18:04:24;3.20;99.90
8715;DHT22;4394;51.208;8.904;2023-02-15T18:07:29;3.20;99.90
8715;DHT22;4394;51.208;8.904;2023-02-15T18:10:35;3.20;99.90
8715;DHT22;4394;51.208;8.904;2023-02-15T18:13:41;3.20;99.90
8715;DHT22;4394;51.208;8.904;2023-02-15T18:16:32;3.10;99.90
8715;DHT22;4394;51.208;8.904;2023-02-15T18:19:22;3.10;99.90
8715;DHT22;4394;51.208;8.904;2023-02-15T18:22:14;3.20;99.90
8715;DHT22;4394;51.208;8.904;2023-02-15T18:25:02;3.30;99.90
8715;DHT22;4394;51.208;8.904;2023-02-15T18:27:50;3.20;99.90
8715;DHT22;4394;51.208;8.904;2023-02-15T18:30:40;3.10;99.90
8715;DHT22;4394;51.208;8.904;2023-02-15T18:33:33;3.10;99.90
8715;DHT22;4394;51.208;8.904;2023-02-15T18:36:25;3.10;99.90
8715;DHT22;4394;51.208;8.904;2023-02-15T18:39:28;3.20;99.90
8715;DHT22;4394;51.208;8.904;2023-02-15T18:42:23;3.10;99.90
8715;DHT22;4394;51.208;8.904;2023-02-15T18:45:15;3.10;99.90
8715;DHT22;4394;51.208;8.904;2023-02-15T18:48:05;3.10;99.90
8715;DHT22;4394;51.208;8.904;2023-02-15T18:50:53;3.20;99.90
8715;DHT22;4394;51.208;8.904;2023-02-15T18:53:41;3.10;99.90
8715;DHT22;4394;51.208;8.904;2023-02-15T18:56:31;3.10;99.90
8715;DHT22;4394;51.208;8.904;2023-02-15T18:59:20;3.10;99.90
8715;DHT22;4394;51.208;8.904;2023-02-15T19:02:11;3.10;99.90
8715;DHT22;4394;51.208;8.904;2023-02-15T19:05:02;3.10;99.90
8715;DHT22;4394;51.208;8.904;2023-02-15T19:07:54;3.20;99.90
8715;DHT22;4394;51.208;8.904;2023-02-15T19:10:42;3.20;99.90
8715;DHT22;4394;51.208;8.904;2023-02-15T19:13:31;3.10;99.90
8715;DHT22;4394;51.208;8.904;2023-02-15T19:16:27;3.10;99.90
8715;DHT22;4394;51.208;8.904;2023-02-15T19:19:15;3.10;99.90
8715;DHT22;4394;51.208;8.904;2023-02-15T19:22:03;3.10;99.90
8715;DHT22;4394;51.208;8.904;2023-02-15T19:24:52;3.10;99.90
8715;DHT22;4394;51.208;8.904;2023-02-15T19:27:40;3.00;99.90